createdAt,value
2023-03-21T00:04:28.344Z,23.63
2023-03-21T00:09:31.908Z,25.73
2023-03-21T00:14:34.488Z,27.33
2023-03-21T00:19:38.504Z,26.23
2023-03-21T00:24:40.764Z,31.70
2023-03-21T00:29:42.909Z,30.50
2023-03-21T00:34:59.709Z,32.05
2023-03-21T00:40:16.328Z,33.35
2023-03-21T00:45:22.088Z,35.00
2023-03-21T00:50:24.750Z,33.63
2023-03-21T00:55:26.883Z,28.63
2023-03-21T01:00:30.408Z,28.25
2023-03-21T01:05:53.439Z,26.48
2023-03-21T01:10:56.185Z,28.02
2023-03-21T01:15:58.644Z,30.38
2023-03-21T01:21:01.768Z,26.80
2023-03-21T01:26:03.993Z,27.65
2023-03-21T01:31:06.820Z,29.15
2023-03-21T01:36:15.058Z,30.52
2023-03-21T01:41:41.615Z,27.38
2023-03-21T01:47:09.332Z,23.95
2023-03-21T01:52:40.541Z,25.23
2023-03-21T01:58:04.689Z,24.60
2023-03-21T02:03:26.355Z,28.40
2023-03-21T02:08:43.194Z,23.27
2023-03-21T02:13:53.582Z,23.60
2023-03-21T02:19:06.212Z,24.58
2023-03-21T02:24:37.476Z,25.58
2023-03-21T02:30:17.458Z,20.97
2023-03-21T02:35:39.075Z,22.55
2023-03-21T02:41:19.961Z,26.33
2023-03-21T02:46:43.953Z,26.58
2023-03-21T02:51:51.052Z,23.70
2023-03-21T02:56:58.133Z,22.05
2023-03-21T03:02:00.681Z,20.02
2023-03-21T03:07:08.559Z,22.60
2023-03-21T03:12:35.761Z,24.52
2023-03-21T03:18:31.977Z,27.40
2023-03-21T03:23:39.836Z,20.92
2023-03-21T03:28:48.441Z,20.70
2023-03-21T03:33:57.432Z,18.50
2023-03-21T03:39:04.625Z,23.98
2023-03-21T03:44:08.479Z,21.90
2023-03-21T03:49:20.294Z,20.83
2023-03-21T03:54:32.343Z,20.70
2023-03-21T03:59:37.322Z,24.63
2023-03-21T04:05:01.141Z,20.38
2023-03-21T04:10:05.014Z,21.88
2023-03-21T04:15:14.710Z,22.17
2023-03-21T04:20:35.584Z,21.27
2023-03-21T04:25:47.625Z,26.17
2023-03-21T04:31:03.555Z,29.73
2023-03-21T04:36:26.281Z,21.27
2023-03-21T04:41:32.212Z,21.15
2023-03-21T04:46:35.203Z,19.95
2023-03-21T04:51:37.948Z,18.98
2023-03-21T04:56:44.649Z,20.42
2023-03-21T05:01:47.848Z,22.83
2023-03-21T05:06:49.904Z,22.42
2023-03-21T05:11:52.408Z,24.20
2023-03-21T05:16:56.329Z,19.63
2023-03-21T05:21:59.004Z,24.15
2023-03-21T05:27:03.638Z,16.50
2023-03-21T05:32:13.653Z,21.90
2023-03-21T05:37:16.250Z,19.77
2023-03-21T05:42:25.998Z,16.38
2023-03-21T05:47:29.145Z,24.55
2023-03-21T05:52:34.147Z,19.30
2023-03-21T05:57:42.543Z,22.48
2023-03-21T06:02:59.180Z,16.98
2023-03-21T06:08:13.104Z,17.85
2023-03-21T06:13:16.016Z,18.67
2023-03-21T06:18:18.343Z,21.40
2023-03-21T06:23:30.483Z,19.55
2023-03-21T06:28:33.379Z,18.25
2023-03-21T06:33:35.643Z,20.25
2023-03-21T06:38:38.173Z,23.75
2023-03-21T06:43:41.071Z,22.75
2023-03-21T06:48:44.824Z,24.88
2023-03-21T06:53:47.719Z,16.98
2023-03-21T06:58:56.647Z,22.00
2023-03-21T07:04:18.302Z,19.00
2023-03-21T07:09:24.505Z,25.10
2023-03-21T07:14:29.940Z,20.50
2023-03-21T07:19:32.114Z,18.95
2023-03-21T07:24:34.673Z,21.08
2023-03-21T07:29:36.922Z,23.90
2023-03-21T07:34:39.314Z,23.40
2023-03-21T07:39:42.006Z,23.05
2023-03-21T07:44:44.211Z,21.13
2023-03-21T07:49:46.579Z,23.00
2023-03-21T07:54:48.825Z,20.50
2023-03-21T07:59:50.987Z,21.48
2023-03-21T08:04:53.140Z,24.70
2023-03-21T08:09:55.350Z,21.75
2023-03-21T08:14:59.994Z,20.65
2023-03-21T08:20:07.845Z,28.05
2023-03-21T08:25:13.771Z,20.73
2023-03-21T08:30:17.844Z,19.70
2023-03-21T08:35:20.539Z,19.08
2023-03-21T08:40:22.761Z,21.95
2023-03-21T08:45:26.868Z,17.75
2023-03-21T08:50:31.639Z,18.65
2023-03-21T08:55:34.681Z,19.10
2023-03-21T09:00:36.878Z,20.35
2023-03-21T09:05:39.584Z,17.55
2023-03-21T09:10:42.090Z,19.58
2023-03-21T09:15:45.243Z,17.38
2023-03-21T09:20:48.113Z,17.15
2023-03-21T09:25:50.386Z,18.33
2023-03-21T09:30:52.696Z,14.75
2023-03-21T09:35:55.944Z,15.43
2023-03-21T09:41:04.128Z,16.23
2023-03-21T09:46:15.392Z,29.70
2023-03-21T09:51:19.433Z,19.17
2023-03-21T09:56:21.909Z,18.40
2023-03-21T10:01:30.367Z,13.18
2023-03-21T10:06:39.163Z,12.70
2023-03-21T10:11:46.104Z,14.10
2023-03-21T10:17:30.874Z,14.20
2023-03-21T10:22:32.905Z,14.00
2023-03-21T10:27:37.000Z,13.25
2023-03-21T10:32:39.967Z,15.68
2023-03-21T10:37:42.192Z,12.10
2023-03-21T10:42:44.552Z,11.07
2023-03-21T10:47:51.598Z,15.48
2023-03-21T10:53:00.529Z,13.52
2023-03-21T10:58:07.642Z,12.90
2023-03-21T11:03:23.468Z,14.50
2023-03-21T11:08:27.297Z,12.52
2023-03-21T11:13:42.636Z,13.63
2023-03-21T11:18:50.598Z,11.75
2023-03-21T11:23:57.370Z,10.25
2023-03-21T11:29:00.839Z,11.60
2023-03-21T11:34:06.778Z,12.02
2023-03-21T11:39:13.677Z,13.55
2023-03-21T11:44:28.125Z,17.30
2023-03-21T11:49:31.238Z,10.55
2023-03-21T11:55:09.090Z,10.13
2023-03-21T12:00:22.533Z,9.68
2023-03-21T12:05:36.440Z,12.55
2023-03-21T12:11:04.388Z,10.23
2023-03-21T12:16:54.512Z,15.75
2023-03-21T12:22:17.839Z,9.07
2023-03-21T12:27:58.677Z,11.35
2023-03-21T12:33:25.026Z,10.60
2023-03-21T12:38:44.185Z,12.27
2023-03-21T12:44:03.623Z,9.20
2023-03-21T12:49:30.987Z,9.70
2023-03-21T12:54:59.351Z,9.30
2023-03-21T13:00:17.548Z,9.65
2023-03-21T13:05:27.456Z,9.93
2023-03-21T13:10:30.538Z,10.77
2023-03-21T13:15:48.094Z,10.50
2023-03-21T13:21:02.788Z,9.73
2023-03-21T13:26:09.900Z,13.85
2023-03-21T13:31:51.738Z,9.25
2023-03-21T13:36:57.841Z,9.45
2023-03-21T13:42:05.836Z,10.35
2023-03-21T13:47:27.273Z,13.88
2023-03-21T13:52:29.680Z,12.98
2023-03-21T13:57:34.725Z,11.73
2023-03-21T14:02:39.417Z,14.25
2023-03-21T14:07:45.378Z,14.35
2023-03-21T14:12:48.628Z,11.98
2023-03-21T14:17:56.521Z,8.95
2023-03-21T14:22:59.123Z,10.95
2023-03-21T14:28:04.400Z,11.07
2023-03-21T14:33:12.316Z,11.88
2023-03-21T14:38:26.603Z,8.57
2023-03-21T14:43:28.675Z,9.05
2023-03-21T14:48:32.946Z,9.23
2023-03-21T14:53:40.778Z,9.10
2023-03-21T14:58:45.487Z,8.88
2023-03-21T15:03:51.492Z,10.27
2023-03-21T15:09:04.710Z,12.73
2023-03-21T15:14:11.778Z,9.88
2023-03-21T15:19:17.695Z,10.25
2023-03-21T15:24:28.210Z,8.15
2023-03-21T15:29:30.832Z,12.30
2023-03-21T15:34:33.278Z,9.40
2023-03-21T15:39:36.359Z,10.27
2023-03-21T15:44:49.533Z,11.88
2023-03-21T15:49:54.901Z,13.15
2023-03-21T15:54:59.162Z,10.80
2023-03-21T16:00:22.615Z,12.57
2023-03-21T16:05:31.426Z,9.77
2023-03-21T16:10:37.535Z,11.57
2023-03-21T16:15:39.953Z,9.95
2023-03-21T16:20:44.920Z,9.35
2023-03-21T16:25:47.092Z,10.13
2023-03-21T16:30:49.171Z,11.55
2023-03-21T16:35:57.370Z,14.25
2023-03-21T16:41:00.856Z,12.88
2023-03-21T16:46:02.983Z,15.57
2023-03-21T16:51:05.488Z,11.27
2023-03-21T16:56:14.887Z,9.32
2023-03-21T17:01:19.821Z,12.35
2023-03-21T17:06:24.569Z,17.88
2023-03-21T17:11:31.333Z,13.38
2023-03-21T17:16:33.491Z,11.93
2023-03-21T17:21:35.609Z,12.45
2023-03-21T17:26:37.729Z,11.13
2023-03-21T17:31:40.371Z,11.88
2023-03-21T17:36:46.270Z,11.82
2023-03-21T17:41:49.800Z,11.23
2023-03-21T17:46:52.476Z,11.23
2023-03-21T17:51:54.818Z,18.38
2023-03-21T17:56:56.961Z,13.38
2023-03-21T18:01:59.202Z,12.20
2023-03-21T18:07:01.739Z,11.32
2023-03-21T18:12:04.157Z,8.77
2023-03-21T18:17:06.401Z,15.15
2023-03-21T18:22:08.947Z,10.70
2023-03-21T18:27:12.248Z,12.68
2023-03-21T18:32:14.369Z,11.90
2023-03-21T18:37:16.531Z,12.18
2023-03-21T18:42:20.475Z,12.20
2023-03-21T18:47:25.672Z,14.23
2023-03-21T18:52:28.057Z,10.90
2023-03-21T18:57:38.847Z,13.48
2023-03-21T19:07:50.448Z,12.65
2023-03-21T19:12:54.511Z,10.23
2023-03-21T19:23:21.114Z,14.13
2023-03-21T19:28:23.167Z,14.02
2023-03-21T19:33:25.208Z,13.63
2023-03-21T19:38:27.429Z,13.05
2023-03-21T19:43:33.215Z,12.82
2023-03-21T19:48:36.492Z,13.43
2023-03-21T19:53:39.422Z,15.35
2023-03-21T19:58:41.766Z,15.23
2023-03-21T20:03:47.291Z,13.10
2023-03-21T20:09:24.727Z,11.30
2023-03-21T20:14:12.926Z,15.50
2023-03-21T20:19:16.185Z,13.43
2023-03-21T20:24:18.877Z,15.57
2023-03-21T20:34:44.588Z,19.48
2023-03-21T20:39:46.719Z,17.75
2023-03-21T20:44:58.462Z,16.70
2023-03-21T20:50:01.103Z,13.93
2023-03-21T20:55:03.444Z,15.57
2023-03-21T21:00:17.239Z,16.35
2023-03-21T21:05:30.728Z,13.57
2023-03-21T21:10:48.590Z,16.65
2023-03-21T21:15:58.183Z,12.40
2023-03-21T21:21:05.918Z,12.30
2023-03-21T21:26:10.543Z,12.15
2023-03-21T21:31:18.299Z,13.40
2023-03-21T21:36:22.494Z,12.25
2023-03-21T21:41:24.689Z,14.27
2023-03-21T21:46:27.140Z,16.13
2023-03-21T21:51:29.425Z,13.98
2023-03-21T21:56:36.349Z,12.43
2023-03-21T22:01:44.306Z,16.05
2023-03-21T22:06:47.554Z,10.18
2023-03-21T22:11:49.950Z,10.48
2023-03-21T22:16:51.965Z,14.63
2023-03-21T22:21:58.001Z,10.63
2023-03-21T22:27:00.107Z,11.18
2023-03-21T22:32:02.457Z,13.88
2023-03-21T22:37:04.719Z,10.38
2023-03-21T22:42:06.938Z,9.18
2023-03-21T22:47:10.838Z,9.80
2023-03-21T22:52:13.788Z,10.55
2023-03-21T22:57:16.727Z,13.13
2023-03-21T23:02:18.857Z,10.32
2023-03-21T23:07:21.155Z,9.50
2023-03-21T23:12:23.186Z,11.45
2023-03-21T23:17:26.656Z,14.60
2023-03-21T23:22:32.783Z,11.90
2023-03-21T23:27:35.441Z,9.73
2023-03-21T23:32:37.647Z,19.45
2023-03-21T23:37:42.416Z,10.35
2023-03-21T23:42:44.488Z,9.48
2023-03-21T23:47:46.614Z,14.20
2023-03-21T23:52:48.623Z,9.15
2023-03-21T23:57:58.692Z,11.48
